Terminal Aerodrome Forecast
Issued by NWS Quad Cities IA IL

Home | Current Version | Previous Version | Text Only | Print | Product List | Glossary On
Versions: 1 2 3 4 5 6 7 8 9 10 11 12 13 14 15 16 17 18 19 20 21 22 23 24 25 26 27 28
000
FTUS43 KDVN 301629 AAD
TAFMLI
TAF AMD
KMLI 301629Z 3016/3112 07003KT P6SM SCT007
      TEMPO 3016/3018 BKN007
     FM301800 10004KT P6SM SCT008 BKN022
     FM302100 14004KT P6SM SCT025
     FM310900 00000KT 4SM BR SKC=

USA.gov is the U.S. government's official web portal to all federal, state and local government web resources and services.